Time;durP1;ratioP1;P1;durP2;ratioP2;P2;SDS_P1;SDS_P2;PMS_P1;PMS_P2;Temp;Humidity;BMP_temperature;BMP_pressure;BME280_temperature;BME280_humidity;BME280_pressure;Samples;Min_cycle;Max_cycle;Signal;HPM_P1;HPM_P2
2022/03/13 00:00:57;;;;;;;45.00;8.60;;;;;;;8.41;100.00;100143.56;5052363;28;20065;-88
2022/03/13 00:03:26;;;;;;;57.30;9.50;;;;;;;8.30;100.00;100119.63;5032428;28;20071;-88
2022/03/13 00:05:53;;;;;;;38.10;6.72;;;;;;;8.42;100.00;100131.38;5032706;28;20053;-88
2022/03/13 00:08:31;;;;;;;39.95;8.60;;;;;;;8.57;100.00;100135.16;5034085;28;20128;-88
2022/03/13 00:11:16;;;;;;;40.47;8.77;;;;;;;8.21;100.00;100138.25;5046502;28;20632;-89
2022/03/13 00:13:51;;;;;;;52.40;8.40;;;;;;;8.34;100.00;100113.41;5053059;28;20438;-89
2022/03/13 00:16:18;;;;;;;40.80;7.82;;;;;;;8.43;100.00;100133.06;5052463;28;20076;-89
2022/03/13 00:18:49;;;;;;;47.00;7.90;;;;;;;8.21;100.00;100113.00;5052093;28;20049;-88
2022/03/13 00:21:20;;;;;;;37.53;9.18;;;;;;;8.28;100.00;100109.25;5050789;28;20048;-88
2022/03/13 00:23:47;;;;;;;44.70;7.80;;;;;;;8.35;100.00;100099.44;5053142;28;20380;-88
2022/03/13 00:26:15;;;;;;;47.72;7.47;;;;;;;8.38;100.00;100101.09;5041334;28;20464;-88
2022/03/13 00:28:43;;;;;;;60.58;11.85;;;;;;;8.30;100.00;100111.81;5052442;28;20053;-88
2022/03/13 00:31:10;;;;;;;58.35;8.32;;;;;;;8.18;100.00;100108.75;5048855;28;21669;-88
2022/03/13 00:33:37;;;;;;;45.05;9.40;;;;;;;8.02;100.00;100063.31;5053448;28;20044;-88
2022/03/13 00:36:04;;;;;;;38.70;7.28;;;;;;;8.17;100.00;100064.50;5053839;28;20758;-88
2022/03/13 00:38:31;;;;;;;57.25;8.50;;;;;;;8.33;100.00;100083.84;5052359;28;20044;-88
2022/03/13 00:40:58;;;;;;;45.45;8.07;;;;;;;8.46;100.00;100110.31;5038571;28;20081;-88
2022/03/13 00:43:28;;;;;;;43.65;9.73;;;;;;;8.14;100.00;100094.16;5032275;28;20066;-89
2022/03/13 00:45:55;;;;;;;35.67;8.60;;;;;;;8.39;100.00;100110.59;5031683;28;20057;-88
2022/03/13 00:48:26;;;;;;;45.97;9.38;;;;;;;8.15;100.00;100103.66;5032061;28;20132;-89
2022/03/13 00:50:53;;;;;;;52.97;10.30;;;;;;;8.22;100.00;100108.66;5033452;28;20128;-88
2022/03/13 00:53:20;;;;;;;54.67;10.80;;;;;;;8.13;100.00;100092.44;5052367;28;20067;-88
2022/03/13 00:55:46;;;;;;;44.08;9.80;;;;;;;8.41;100.00;100082.69;5050853;28;20051;-88
2022/03/13 00:58:13;;;;;;;40.97;8.82;;;;;;;8.50;100.00;100095.44;5051721;28;20049;-88
2022/03/13 01:00:41;;;;;;;48.40;8.85;;;;;;;8.43;100.00;100088.72;5051476;28;20466;-87
2022/03/13 01:03:29;;;;;;;52.08;9.13;;;;;;;8.51;100.00;100073.63;5052220;28;20049;-88
2022/03/13 01:05:56;;;;;;;50.40;8.70;;;;;;;8.40;100.00;100071.41;5051530;28;20064;-89
2022/03/13 01:08:22;;;;;;;46.67;8.13;;;;;;;8.30;100.00;100063.09;5050672;28;20049;-89
2022/03/13 01:10:50;;;;;;;52.03;8.43;;;;;;;8.16;100.00;100041.91;5039589;28;20468;-89
2022/03/13 01:13:17;;;;;;;55.75;7.57;;;;;;;8.36;100.00;100048.97;5052189;28;20051;-90
2022/03/13 01:15:45;;;;;;;35.95;9.20;;;;;;;8.51;100.00;100081.47;5051830;28;20136;-89
2022/03/13 01:18:11;;;;;;;46.67;7.97;;;;;;;8.42;100.00;100080.06;5051890;28;20088;-89
2022/03/13 01:20:38;;;;;;;48.80;9.98;;;;;;;8.59;100.00;100062.88;5051665;28;20053;-89
2022/03/13 01:23:08;;;;;;;58.65;9.23;;;;;;;8.67;100.00;100066.88;5051573;28;20067;-89
2022/03/13 01:25:35;;;;;;;43.03;7.90;;;;;;;8.50;100.00;100069.34;5050270;28;20055;-89
2022/03/13 01:28:01;;;;;;;42.88;9.65;;;;;;;8.50;100.00;100064.13;5041736;28;20072;-89
2022/03/13 01:30:28;;;;;;;38.55;7.57;;;;;;;8.45;100.00;100043.44;5031138;28;20049;-89
2022/03/13 01:32:55;;;;;;;55.05;9.77;;;;;;;8.33;100.00;100043.88;5050064;28;20052;-88
2022/03/13 01:35:23;;;;;;;49.72;7.55;;;;;;;8.55;100.00;100049.09;5051393;28;20059;-88
2022/03/13 01:37:52;;;;;;;56.20;10.23;;;;;;;8.18;100.00;100040.13;5051627;28;20475;-89
2022/03/13 01:40:21;;;;;;;42.65;8.55;;;;;;;8.41;100.00;100043.56;5052534;28;20056;-89
2022/03/13 01:42:49;;;;;;;54.83;9.23;;;;;;;8.36;100.00;100039.38;5050373;28;20041;-88
2022/03/13 01:45:19;;;;;;;35.33;7.95;;;;;;;8.55;100.00;100031.72;5051260;28;20498;-89
2022/03/13 01:47:47;;;;;;;48.15;8.45;;;;;;;8.46;100.00;100036.44;5051158;28;20048;-89
2022/03/13 01:50:15;;;;;;;42.90;8.45;;;;;;;8.45;100.00;100003.44;5051311;28;20091;-88
2022/03/13 01:52:46;;;;;;;44.60;7.82;;;;;;;8.41;100.00;100022.69;5035516;28;20057;-89
2022/03/13 01:55:13;;;;;;;47.83;8.93;;;;;;;8.52;100.00;100008.34;5031117;28;20141;-89
2022/03/13 01:57:40;;;;;;;41.75;9.07;;;;;;;8.46;100.00;100005.97;5031041;28;20096;-89
2022/03/13 02:00:09;;;;;;;35.75;7.78;;;;;;;8.31;100.00;100002.19;5031740;28;20049;-89
2022/03/13 02:02:43;;;;;;;54.65;8.82;;;;;;;8.40;100.00;99997.53;5029790;28;20085;-89
2022/03/13 02:05:25;;;;;;;46.33;8.25;;;;;;;8.52;100.00;100013.56;5031006;28;20539;-89
2022/03/13 02:07:52;;;;;;;43.63;8.82;;;;;;;8.36;100.00;99997.66;5030970;28;20057;-89
2022/03/13 02:10:18;;;;;;;41.58;8.38;;;;;;;8.56;100.00;99998.63;5039321;28;20475;-89
2022/03/13 02:12:45;;;;;;;45.30;9.15;;;;;;;8.12;100.00;100015.09;5049993;28;20505;-90
2022/03/13 02:15:12;;;;;;;47.83;8.90;;;;;;;8.12;100.00;99989.03;5051077;28;20061;-90
2022/03/13 02:17:39;;;;;;;53.95;11.07;;;;;;;8.16;100.00;99990.63;5051152;28;20056;-89
2022/03/13 02:20:14;;;;;;;46.17;8.00;;;;;;;8.28;100.00;99984.06;5052140;28;20491;-89
2022/03/13 02:22:45;;;;;;;33.95;8.43;;;;;;;8.12;100.00;99977.75;5052684;28;20493;-89
2022/03/13 02:25:19;;;;;;;40.75;7.95;;;;;;;8.01;100.00;99982.56;5055438;28;20053;-87
2022/03/13 02:27:46;;;;;;;54.33;9.25;;;;;;;7.96;100.00;99972.31;5035022;28;20479;-89
2022/03/13 02:30:13;;;;;;;49.65;7.88;;;;;;;8.02;100.00;99992.06;5051316;28;20049;-89
2022/03/13 02:32:40;;;;;;;56.00;9.85;;;;;;;7.90;100.00;99967.34;5042592;28;20047;-89
2022/03/13 02:35:09;;;;;;;43.13;9.07;;;;;;;7.98;100.00;99980.91;5054294;28;20060;-89
2022/03/13 02:37:41;;;;;;;40.88;8.60;;;;;;;8.17;100.00;99981.88;5054802;28;20049;-89
2022/03/13 02:40:22;;;;;;;45.90;9.30;;;;;;;8.00;100.00;99997.34;5055895;28;20049;-89
2022/03/13 02:42:53;;;;;;;69.32;9.75;;;;;;;7.99;100.00;99978.25;5036834;28;20132;-89
2022/03/13 02:45:27;;;;;;;44.83;8.90;;;;;;;7.97;100.00;99984.44;5034744;28;20056;-90
2022/03/13 02:47:54;;;;;;;53.85;9.13;;;;;;;8.02;100.00;99994.66;5034821;28;20144;-89
2022/03/13 02:50:22;;;;;;;38.65;7.22;;;;;;;8.17;100.00;99968.00;5034563;28;20053;-88
2022/03/13 02:52:49;;;;;;;52.63;8.80;;;;;;;8.06;100.00;99976.25;5054711;28;20049;-89
2022/03/13 02:55:16;;;;;;;50.83;8.80;;;;;;;8.07;100.00;99969.28;5054326;28;20060;-88
2022/03/13 02:57:43;;;;;;;36.75;9.15;;;;;;;8.12;100.00;99967.34;5055054;28;20076;-89
2022/03/13 03:00:10;;;;;;;45.03;7.90;;;;;;;8.15;100.00;99975.88;5053556;28;20132;-89
2022/03/13 03:02:37;;;;;;;48.65;8.98;;;;;;;8.07;100.00;99966.66;5039939;28;20052;-89
2022/03/13 03:05:06;;;;;;;44.08;8.63;;;;;;;8.13;100.00;99956.00;5034200;28;20053;-89
2022/03/13 03:07:34;;;;;;;40.42;10.25;;;;;;;8.05;100.00;99953.69;5034594;28;20572;-89
2022/03/13 03:10:04;;;;;;;43.15;8.43;;;;;;;7.93;100.00;99928.97;5034624;28;20049;-88
2022/03/13 03:12:34;;;;;;;40.53;9.77;;;;;;;7.91;100.00;99932.53;5047885;28;20049;-87
2022/03/13 03:15:01;;;;;;;52.30;8.68;;;;;;;8.01;100.00;99933.03;5053601;28;20055;-88
2022/03/13 03:17:28;;;;;;;40.80;7.20;;;;;;;8.10;100.00;99919.63;5053874;28;20053;-88
2022/03/13 03:19:54;;;;;;;48.70;9.88;;;;;;;7.94;100.00;99922.84;5053992;28;20057;-88
2022/03/13 03:22:21;;;;;;;48.75;9.10;;;;;;;7.96;100.00;99936.66;5039390;28;20402;-88
2022/03/13 03:24:48;;;;;;;47.75;8.68;;;;;;;7.70;100.00;99918.56;5034245;28;20052;-89
2022/03/13 03:27:17;;;;;;;42.97;9.07;;;;;;;7.99;100.00;99923.50;5049026;28;20053;-89
2022/03/13 03:29:44;;;;;;;56.63;9.65;;;;;;;7.95;100.00;99918.47;5053115;28;20055;-89
2022/03/13 03:32:10;;;;;;;48.97;10.40;;;;;;;7.72;100.00;99927.19;5041198;28;20059;-89
2022/03/13 03:34:37;;;;;;;47.60;9.77;;;;;;;7.85;100.00;99918.00;5036404;28;20049;-89
2022/03/13 03:37:04;;;;;;;45.05;7.68;;;;;;;7.83;100.00;99927.63;5052779;28;20075;-89
2022/03/13 03:39:32;;;;;;;54.95;10.02;;;;;;;7.82;100.00;99935.50;5052537;28;20055;-89
2022/03/13 03:42:00;;;;;;;46.80;9.27;;;;;;;7.72;100.00;99919.34;5043605;28;20051;-88
2022/03/13 03:44:27;;;;;;;50.65;10.63;;;;;;;7.97;100.00;99916.66;5053162;28;20402;-89
2022/03/13 03:46:55;;;;;;;50.60;7.88;;;;;;;7.76;100.00;99911.38;5054365;28;20059;-90
2022/03/13 03:49:22;;;;;;;39.42;7.43;;;;;;;7.87;100.00;99925.75;5049609;28;20132;-88
2022/03/13 03:51:50;;;;;;;48.00;9.68;;;;;;;7.66;100.00;99930.03;5031468;28;20060;-88
2022/03/13 03:54:17;;;;;;;52.50;7.90;;;;;;;7.82;100.00;99923.31;5033749;28;20403;-89
2022/03/13 03:56:44;;;;;;;47.13;11.13;;;;;;;7.83;100.00;99945.88;5033600;28;20506;-89
2022/03/13 03:59:11;;;;;;;41.75;8.60;;;;;;;7.92;100.00;99914.22;5039596;28;20079;-89
2022/03/13 04:01:39;;;;;;;36.40;9.38;;;;;;;7.79;100.00;99905.19;5052533;28;20110;-89
2022/03/13 04:04:13;;;;;;;38.78;9.70;;;;;;;7.78;100.00;99899.13;5053138;28;20062;-89
2022/03/13 04:06:41;;;;;;;49.05;9.40;;;;;;;7.64;100.00;99918.81;5052518;28;20067;-89
2022/03/13 04:09:09;;;;;;;51.00;9.82;;;;;;;7.75;100.00;99881.00;5053773;28;20045;-88
2022/03/13 04:11:37;;;;;;;44.28;10.57;;;;;;;7.74;100.00;99896.72;5045918;28;20071;-88
2022/03/13 04:14:04;;;;;;;42.50;10.80;;;;;;;8.01;100.00;99891.31;5032424;28;20049;-88
2022/03/13 04:16:31;;;;;;;71.75;12.30;;;;;;;7.67;100.00;99914.34;5032812;28;20046;-89
2022/03/13 04:18:58;;;;;;;50.90;10.82;;;;;;;7.95;100.00;99902.81;5032767;28;20092;-87
2022/03/13 04:21:25;;;;;;;57.80;13.07;;;;;;;7.97;100.00;99898.41;5037697;28;20390;-88
2022/03/13 04:23:51;;;;;;;42.70;9.27;;;;;;;7.91;100.00;99885.63;5052567;28;20384;-87
2022/03/13 04:26:20;;;;;;;42.55;11.18;;;;;;;7.71;100.00;99862.97;5052903;28;20059;-88
2022/03/13 04:28:49;;;;;;;50.03;12.38;;;;;;;8.00;100.00;99885.22;5052575;28;20048;-89
2022/03/13 04:31:18;;;;;;;49.13;12.38;;;;;;;7.92;100.00;99895.97;5051068;28;20514;-88
2022/03/13 04:33:45;;;;;;;44.05;11.65;;;;;;;7.84;100.00;99885.00;5053116;28;20045;-88
2022/03/13 04:36:13;;;;;;;52.15;14.00;;;;;;;7.76;100.00;99887.09;5052078;28;20053;-88
2022/03/13 04:38:41;;;;;;;48.83;13.57;;;;;;;7.80;100.00;99881.66;5052441;28;20141;-88
2022/03/13 04:41:08;;;;;;;56.88;14.45;;;;;;;7.86;100.00;99883.22;5051659;28;20067;-88
2022/03/13 04:43:35;;;;;;;53.83;12.70;;;;;;;7.98;100.00;99881.84;5051307;28;20055;-89
2022/03/13 04:46:02;;;;;;;50.38;14.60;;;;;;;7.80;100.00;99871.25;5066267;28;20052;-88
2022/03/13 04:48:32;;;;;;;52.05;11.75;;;;;;;7.96;100.00;99874.09;5032520;28;20054;-89
2022/03/13 04:51:00;;;;;;;52.53;15.65;;;;;;;7.97;100.00;99873.19;5050226;28;20399;-88
2022/03/13 04:53:27;;;;;;;45.60;14.75;;;;;;;8.04;100.00;99885.97;5052483;28;20595;-89
2022/03/13 04:55:55;;;;;;;46.15;12.55;;;;;;;7.90;100.00;99891.75;5052347;28;20052;-88
2022/03/13 04:58:22;;;;;;;54.08;12.85;;;;;;;8.04;100.00;99879.00;5038771;28;20080;-89
2022/03/13 05:00:48;;;;;;;53.47;13.55;;;;;;;8.00;100.00;99890.44;5032197;28;20504;-89
2022/03/13 05:03:15;;;;;;;46.88;12.35;;;;;;;7.79;100.00;99886.94;5051929;28;20049;-88
2022/03/13 05:05:42;;;;;;;48.50;12.80;;;;;;;7.77;100.00;99879.22;5052932;28;20506;-88
2022/03/13 05:08:14;;;;;;;53.90;12.10;;;;;;;7.91;100.00;99870.81;5051677;28;20045;-88
2022/03/13 05:10:45;;;;;;;44.70;12.18;;;;;;;8.22;100.00;99881.78;5052894;28;20049;-89
2022/03/13 05:13:15;;;;;;;50.63;12.20;;;;;;;7.92;100.00;99874.28;5051458;28;20123;-88
2022/03/13 05:15:43;;;;;;;59.15;14.27;;;;;;;7.94;100.00;99890.72;5053322;28;20159;-89
2022/03/13 05:18:12;;;;;;;58.20;14.48;;;;;;;7.90;100.00;99871.75;5051826;28;20049;-89
2022/03/13 05:20:40;;;;;;;49.50;13.48;;;;;;;8.06;100.00;99879.78;5051183;28;20053;-89
2022/03/13 05:23:08;;;;;;;60.80;17.05;;;;;;;8.15;100.00;99874.19;5030801;28;20042;-88
2022/03/13 05:25:36;;;;;;;39.20;13.35;;;;;;;8.16;100.00;99875.03;5034406;28;20053;-89
2022/03/13 05:28:03;;;;;;;57.47;15.63;;;;;;;8.11;100.00;99872.63;5048594;28;20053;-88
2022/03/13 05:30:30;;;;;;;61.90;15.82;;;;;;;8.24;100.00;99875.56;5039792;28;20055;-90
2022/03/13 05:32:58;;;;;;;55.08;16.40;;;;;;;8.22;100.00;99871.34;5049259;28;20139;-89
2022/03/13 05:35:25;;;;;;;58.30;16.15;;;;;;;7.98;100.00;99880.13;5047161;28;20053;-89
2022/03/13 05:37:53;;;;;;;60.70;15.50;;;;;;;8.17;100.00;99866.31;5048551;28;20132;-89
2022/03/13 05:40:20;;;;;;;73.20;16.77;;;;;;;8.05;100.00;99856.38;5047360;28;20053;-90
2022/03/13 05:42:55;;;;;;;46.80;14.85;;;;;;;8.24;100.00;99874.72;5047706;28;20049;-90
2022/03/13 05:45:24;;;;;;;51.10;14.82;;;;;;;8.23;100.00;99881.69;5051061;28;20045;-90
2022/03/13 05:48:00;;;;;;;60.65;18.13;;;;;;;8.18;100.00;99879.28;5051848;28;20140;-88
2022/03/13 05:50:28;;;;;;;50.15;16.40;;;;;;;8.10;100.00;99885.72;5050270;28;20067;-88
2022/03/13 05:52:56;;;;;;;45.75;15.75;;;;;;;8.37;100.00;99875.91;5045290;28;20075;-90
2022/03/13 05:55:25;;;;;;;60.22;18.40;;;;;;;8.20;100.00;99884.44;5048989;28;20606;-87
2022/03/13 05:57:56;;;;;;;56.65;18.40;;;;;;;8.01;100.00;99870.47;5043088;28;20049;-89
2022/03/13 06:00:25;;;;;;;46.63;16.90;;;;;;;8.06;100.00;99869.34;5049871;28;20398;-88
2022/03/13 06:02:53;;;;;;;61.70;16.48;;;;;;;8.30;100.00;99867.47;5038950;28;20056;-88
2022/03/13 06:05:21;;;;;;;44.85;14.98;;;;;;;8.38;100.00;99871.56;5048502;28;20055;-88
2022/03/13 06:07:49;;;;;;;51.53;15.93;;;;;;;7.87;100.00;99835.38;5050293;28;20136;-88
2022/03/13 06:10:21;;;;;;;55.47;16.00;;;;;;;8.41;100.00;99843.56;5050445;28;20502;-87
2022/03/13 06:12:48;;;;;;;64.60;17.70;;;;;;;8.21;100.00;99864.41;5044421;28;20461;-88
2022/03/13 06:15:17;;;;;;;59.85;16.85;;;;;;;8.10;100.00;99868.31;5050951;28;20049;-88
2022/03/13 06:17:47;;;;;;;63.05;18.05;;;;;;;8.21;100.00;99857.44;5050220;28;20053;-88
2022/03/13 06:20:15;;;;;;;49.17;16.30;;;;;;;8.25;100.00;99872.06;5040959;28;20049;-89
2022/03/13 06:22:47;;;;;;;63.70;17.98;;;;;;;7.93;100.00;99868.16;5046535;28;20041;-88
2022/03/13 06:25:16;;;;;;;58.72;17.60;;;;;;;7.94;100.00;99834.22;5051082;28;20140;-88
2022/03/13 06:27:44;;;;;;;66.55;17.13;;;;;;;8.16;100.00;99875.03;5046455;28;20073;-88
2022/03/13 06:30:14;;;;;;;57.30;16.95;;;;;;;8.22;100.00;99885.22;5048600;28;20664;-88
2022/03/13 06:32:47;;;;;;;52.55;14.98;;;;;;;8.29;100.00;99885.81;5046265;28;20415;-88
2022/03/13 06:35:17;;;;;;;61.92;17.83;;;;;;;8.41;100.00;99884.44;5048835;28;20474;-88
2022/03/13 06:37:44;;;;;;;64.20;17.13;;;;;;;8.21;100.00;99886.13;5030976;28;20057;-87
2022/03/13 06:40:16;;;;;;;54.30;17.23;;;;;;;7.97;100.00;99873.19;5037628;28;20053;-88
2022/03/13 06:42:43;;;;;;;43.35;15.43;;;;;;;8.22;100.00;99884.38;5041997;28;20049;-87
2022/03/13 06:45:10;;;;;;;60.92;16.77;;;;;;;8.09;100.00;99863.16;5050779;28;20051;-88
2022/03/13 06:47:38;;;;;;;53.47;17.20;;;;;;;7.90;100.00;99871.75;5050971;28;20969;-89
2022/03/13 06:50:07;;;;;;;57.10;16.05;;;;;;;8.18;100.00;99887.09;5046637;28;20060;-89
2022/03/13 06:52:35;;;;;;;48.72;15.63;;;;;;;8.32;100.00;99870.88;5040807;28;20310;-89
2022/03/13 06:55:04;;;;;;;50.45;18.30;;;;;;;8.35;100.00;99878.56;5031382;28;20048;-90
2022/03/13 06:57:31;;;;;;;58.33;17.60;;;;;;;8.14;100.00;99889.91;5043045;28;20395;-93
2022/03/13 06:59:58;;;;;;;48.50;17.80;;;;;;;8.04;100.00;99914.63;5049314;28;20049;-88
2022/03/13 07:02:25;;;;;;;45.67;16.80;;;;;;;8.28;100.00;99871.06;5044974;28;20045;-89
2022/03/13 07:04:52;;;;;;;58.58;18.50;;;;;;;8.21;100.00;99865.25;5048174;28;20045;-87
2022/03/13 07:07:19;;;;;;;42.45;18.00;;;;;;;8.39;100.00;99868.84;5049564;28;20064;-87
2022/03/13 07:09:45;;;;;;;42.58;17.35;;;;;;;8.17;100.00;99872.34;5052530;28;20053;-88
2022/03/13 07:12:13;;;;;;;58.38;21.63;;;;;;;8.35;100.00;99877.72;5052403;28;20048;-88
2022/03/13 07:14:46;;;;;;;45.40;15.60;;;;;;;8.65;100.00;99874.75;5048012;28;20057;-88
2022/03/13 07:17:17;;;;;;;43.10;18.58;;;;;;;8.36;100.00;99885.50;5046482;28;20099;-88
2022/03/13 07:19:45;;;;;;;56.38;19.73;;;;;;;8.15;100.00;99870.75;5034908;28;20060;-88
2022/03/13 07:22:13;;;;;;;45.70;17.85;;;;;;;8.33;100.00;99901.25;5033157;28;20049;-87
2022/03/13 07:24:43;;;;;;;56.45;19.80;;;;;;;8.49;100.00;99898.88;5050239;28;20057;-88
2022/03/13 07:27:10;;;;;;;49.15;16.52;;;;;;;8.46;100.00;99892.94;5034459;28;20059;-88
2022/03/13 07:29:37;;;;;;;45.35;16.45;;;;;;;8.58;100.00;99900.25;5053663;28;20048;-86
2022/03/13 07:32:04;;;;;;;43.90;16.60;;;;;;;8.65;100.00;99901.69;5041590;28;20048;-88
2022/03/13 07:34:31;;;;;;;46.75;17.58;;;;;;;8.52;100.00;99898.75;5048515;28;20053;-88
2022/03/13 07:36:58;;;;;;;48.47;17.88;;;;;;;8.62;100.00;99899.22;5053527;28;20045;-88
2022/03/13 07:39:24;;;;;;;45.97;18.60;;;;;;;8.46;100.00;99892.94;5035373;28;20061;-88
2022/03/13 07:41:53;;;;;;;44.15;17.90;;;;;;;8.54;100.00;99896.09;5048745;28;20049;-88
2022/03/13 07:44:21;;;;;;;56.03;17.35;;;;;;;8.35;100.00;99893.38;5054637;28;20052;-88
2022/03/13 07:46:48;;;;;;;46.67;16.25;;;;;;;8.57;100.00;99864.66;5052713;28;20410;-88
2022/03/13 07:49:14;;;;;;;56.17;18.85;;;;;;;8.71;100.00;99884.91;5052292;28;20056;-88
2022/03/13 07:51:43;;;;;;;51.63;18.30;;;;;;;8.72;100.00;99868.34;5051399;28;20051;-88
2022/03/13 07:54:11;;;;;;;48.58;16.63;;;;;;;8.77;100.00;99876.00;5035813;28;20448;-88
2022/03/13 07:56:38;;;;;;;63.88;20.20;;;;;;;8.06;100.00;99832.84;5053175;28;20084;-88
2022/03/13 07:59:05;;;;;;;55.83;21.90;;;;;;;8.42;100.00;99837.47;5053342;28;20495;-88
2022/03/13 08:01:31;;;;;;;52.17;20.55;;;;;;;8.53;100.00;99805.69;5046402;28;20069;-86
2022/03/13 08:04:01;;;;;;;55.25;20.58;;;;;;;8.28;100.00;99814.53;5043538;28;20041;-88
2022/03/13 08:06:28;;;;;;;48.08;20.17;;;;;;;8.71;100.00;99837.94;5052887;28;20412;-88
2022/03/13 08:08:55;;;;;;;60.20;23.17;;;;;;;8.66;100.00;99837.31;5054243;28;20057;-87
2022/03/13 08:11:22;;;;;;;58.85;21.58;;;;;;;8.53;100.00;99839.59;5047091;28;20091;-88
2022/03/13 08:13:49;;;;;;;54.55;21.50;;;;;;;9.00;100.00;99807.94;5050966;28;20053;-88
2022/03/13 08:16:17;;;;;;;58.00;21.70;;;;;;;9.08;100.00;99816.25;5051822;28;20394;-88
2022/03/13 08:18:45;;;;;;;55.47;22.52;;;;;;;8.98;100.00;99801.94;5050858;28;20053;-89
2022/03/13 08:21:12;;;;;;;55.08;23.00;;;;;;;9.09;100.00;99815.31;5049405;28;20049;-88
2022/03/13 08:23:39;;;;;;;62.17;23.45;;;;;;;9.33;100.00;99796.84;5045026;28;20466;-88
2022/03/13 08:26:06;;;;;;;57.50;23.00;;;;;;;9.64;100.00;99805.81;5046222;28;20045;-87
2022/03/13 08:28:33;;;;;;;51.65;21.67;;;;;;;9.99;100.00;99814.53;5038227;28;20055;-88
2022/03/13 08:31:00;;;;;;;60.00;23.80;;;;;;;10.07;100.00;99812.38;5043763;28;20095;-87
2022/03/13 08:33:27;;;;;;;63.17;21.85;;;;;;;9.91;100.00;99787.06;5039926;28;20124;-87
2022/03/13 08:35:54;;;;;;;50.90;23.45;;;;;;;9.19;100.00;99791.38;5032849;28;20057;-87
2022/03/13 08:38:21;;;;;;;54.88;22.80;;;;;;;9.55;100.00;99809.72;5052495;28;20067;-86
2022/03/13 08:40:48;;;;;;;53.78;20.48;;;;;;;9.29;100.00;99756.09;5039445;28;20050;-87
2022/03/13 08:43:14;;;;;;;56.65;20.38;;;;;;;9.69;100.00;99773.28;5051973;28;20675;-87
2022/03/13 08:45:41;;;;;;;42.85;19.45;;;;;;;9.79;100.00;99762.38;5051793;28;20049;-88
2022/03/13 08:48:08;;;;;;;59.70;23.70;;;;;;;9.56;100.00;99753.94;5045391;28;20068;-88
2022/03/13 08:50:35;;;;;;;56.30;21.90;;;;;;;9.22;100.00;99775.59;5048933;28;20056;-88
2022/03/13 08:53:02;;;;;;;58.92;22.38;;;;;;;9.63;100.00;99776.22;5033631;28;20050;-88
2022/03/13 08:55:29;;;;;;;42.95;19.27;;;;;;;9.46;100.00;99750.06;5032436;28;20058;-87
2022/03/13 08:57:55;;;;;;;47.10;19.00;;;;;;;9.84;100.00;99769.09;5039135;28;20057;-87
2022/03/13 09:00:24;;;;;;;50.58;20.85;;;;;;;9.86;100.00;99780.31;5051981;28;20402;-88
2022/03/13 09:02:52;;;;;;;56.03;20.35;;;;;;;9.78;100.00;99777.22;5037285;28;20089;-87
2022/03/13 09:05:21;;;;;;;60.10;21.35;;;;;;;9.71;100.00;99801.97;5050589;28;20053;-88
2022/03/13 09:07:47;;;;;;;60.63;20.35;;;;;;;9.85;100.00;99804.75;5052124;28;20398;-88
2022/03/13 09:10:14;;;;;;;47.20;18.88;;;;;;;10.21;100.00;99795.13;5051338;28;20048;-88
2022/03/13 09:12:41;;;;;;;54.08;21.85;;;;;;;9.67;100.00;99806.50;5035742;28;20053;-88
2022/03/13 09:15:08;;;;;;;52.03;20.42;;;;;;;9.79;100.00;99771.09;5046099;28;20053;-86
2022/03/13 09:17:36;;;;;;;50.35;20.25;;;;;;;9.44;100.00;99781.47;5049491;28;20059;-88
2022/03/13 09:20:04;;;;;;;61.42;24.10;;;;;;;9.56;100.00;99798.34;5033748;28;20046;-88
2022/03/13 09:22:32;;;;;;;58.58;20.60;;;;;;;9.48;100.00;99741.22;5030012;28;20052;-88
2022/03/13 09:24:59;;;;;;;57.55;23.45;;;;;;;9.86;100.00;99800.34;5032394;28;20045;-87
2022/03/13 09:27:27;;;;;;;55.92;21.40;;;;;;;10.02;100.00;99787.38;5047720;28;21437;-87
2022/03/13 09:29:56;;;;;;;63.15;22.80;;;;;;;9.72;100.00;99797.59;5038736;28;20049;-88
2022/03/13 09:32:25;;;;;;;58.30;22.10;;;;;;;9.69;100.00;99811.66;5048691;28;20562;-88
2022/03/13 09:34:53;;;;;;;52.55;21.05;;;;;;;10.07;100.00;99796.69;5051243;28;20807;-88
2022/03/13 09:37:21;;;;;;;45.78;19.75;;;;;;;9.70;100.00;99792.44;5045675;28;20572;-88
2022/03/13 09:40:10;;;;;;;48.13;20.65;;;;;;;9.68;100.00;99809.97;5042750;28;20056;-88
2022/03/13 09:42:37;;;;;;;52.80;20.65;;;;;;;9.55;100.00;99777.50;5046050;28;20136;-88
2022/03/13 09:45:04;;;;;;;55.13;23.15;;;;;;;9.38;100.00;99791.38;5051158;28;20159;-89
2022/03/13 09:47:32;;;;;;;51.65;21.67;;;;;;;9.25;100.00;99823.31;5050812;28;20055;-88
2022/03/13 09:49:58;;;;;;;63.65;21.27;;;;;;;9.44;100.00;99796.31;5052553;28;20080;-88
2022/03/13 09:52:25;;;;;;;47.05;20.50;;;;;;;9.26;100.00;99775.38;5036972;28;20053;-88
2022/03/13 09:54:52;;;;;;;53.05;22.02;;;;;;;9.07;100.00;99780.63;5031497;28;20479;-88
2022/03/13 09:57:20;;;;;;;56.22;24.17;;;;;;;9.11;100.00;99760.44;5038932;28;20052;-88
2022/03/13 09:59:47;;;;;;;53.05;23.50;;;;;;;8.81;100.00;99744.44;5045267;28;20041;-87
2022/03/13 10:02:14;;;;;;;57.38;23.17;;;;;;;9.23;100.00;99732.88;5039407;28;20498;-88
2022/03/13 10:04:41;;;;;;;49.65;22.40;;;;;;;9.42;100.00;99796.41;5050595;28;20041;-87
2022/03/13 10:07:12;;;;;;;53.75;21.20;;;;;;;8.93;100.00;99773.41;5048410;28;20483;-88
2022/03/13 10:09:43;;;;;;;51.00;22.05;;;;;;;9.56;100.00;99784.41;5050330;28;20199;-87
2022/03/13 10:12:16;;;;;;;64.07;24.38;;;;;;;9.50;100.00;99781.19;5043906;28;20049;-88
2022/03/13 10:15:00;;;;;;;49.70;21.67;;;;;;;9.95;100.00;99776.41;5050021;28;20124;-89
2022/03/13 10:17:29;;;;;;;51.63;22.17;;;;;;;9.29;100.00;99737.81;5047877;28;20049;-88
2022/03/13 10:20:16;;;;;;;59.60;23.60;;;;;;;9.08;100.00;99755.34;5038515;28;20045;-89
2022/03/13 10:22:44;;;;;;;63.05;23.55;;;;;;;9.27;100.00;99790.13;5043824;28;20131;-89
2022/03/13 10:25:13;;;;;;;49.67;20.60;;;;;;;9.65;100.00;99782.22;5049265;28;20084;-89
2022/03/13 10:27:42;;;;;;;49.63;19.83;;;;;;;9.21;100.00;99787.81;5050613;28;20048;-88
2022/03/13 10:30:10;;;;;;;51.97;20.38;;;;;;;9.50;100.00;99780.34;5044718;28;20462;-88
2022/03/13 10:32:38;;;;;;;43.40;19.80;;;;;;;9.76;100.00;99770.38;5043491;28;20060;-87
2022/03/13 10:35:05;;;;;;;51.85;20.23;;;;;;;9.45;100.00;99770.09;5050436;28;20055;-88
2022/03/13 10:37:38;;;;;;;46.47;18.90;;;;;;;9.48;100.00;99763.91;5043974;28;20049;-87
2022/03/13 10:40:29;;;;;;;43.70;19.67;;;;;;;9.43;100.00;99756.25;5052819;28;20060;-87
2022/03/13 10:42:58;;;;;;;45.42;17.88;;;;;;;9.38;100.00;99766.09;5036160;28;20702;-87
2022/03/13 10:45:37;;;;;;;49.65;20.33;;;;;;;9.71;100.00;99772.38;5040386;28;20045;-87
2022/03/13 10:48:32;;;;;;;46.45;18.70;;;;;;;9.84;100.00;99778.69;5055242;28;20148;-89
2022/03/13 10:51:01;;;;;;;49.20;18.50;;;;;;;9.25;100.00;99781.50;5051386;28;20487;-88
2022/03/13 10:53:28;;;;;;;48.55;17.80;;;;;;;9.64;100.00;99777.06;5034317;28;20193;-88
2022/03/13 10:56:10;;;;;;;48.42;18.85;;;;;;;9.18;100.00;99746.16;5049771;28;20041;-88
2022/03/13 10:58:40;;;;;;;48.17;18.65;;;;;;;9.57;100.00;99784.34;5038804;28;20403;-88
2022/03/13 11:01:12;;;;;;;48.78;18.35;;;;;;;9.17;100.00;99806.28;5049509;28;20072;-88
2022/03/13 11:03:54;;;;;;;43.60;16.83;;;;;;;9.37;100.00;99750.50;5054241;28;20051;-88
2022/03/13 11:06:24;;;;;;;39.67;15.52;;;;;;;9.13;100.00;99750.75;5051113;28;20049;-87
2022/03/13 11:08:54;;;;;;;43.00;16.98;;;;;;;9.43;100.00;99785.00;5048645;28;20139;-88
2022/03/13 11:11:23;;;;;;;46.63;18.55;;;;;;;9.26;100.00;99784.97;5041603;28;20398;-88
2022/03/13 11:13:55;;;;;;;39.22;17.33;;;;;;;9.33;100.00;99775.94;5053758;28;20055;-88
2022/03/13 11:16:24;;;;;;;38.38;16.17;;;;;;;9.41;100.00;99779.00;5053751;28;20495;-88
2022/03/13 11:18:53;;;;;;;43.22;14.60;;;;;;;9.76;100.00;99807.00;5054715;28;20498;-87
2022/03/13 11:21:21;;;;;;;43.75;17.15;;;;;;;9.21;100.00;99787.81;5040277;28;20049;-88
2022/03/13 11:23:49;;;;;;;42.75;15.35;;;;;;;8.99;100.00;99780.09;5055023;28;20080;-88
2022/03/13 11:26:18;;;;;;;43.08;15.90;;;;;;;9.48;100.00;99783.03;5053808;28;20499;-88